Time;durP1;ratioP1;P1;durP2;ratioP2;P2;SDS_P1;SDS_P2;PMS_P1;PMS_P2;Temp;Humidity;BMP_temperature;BMP_pressure;BME280_temperature;BME280_humidity;BME280_pressure;Samples;Min_cycle;Max_cycle;Signal;HPM_P1;HPM_P2
2022/09/25 00:01:11;;;;;;;8.15;3.22;;;;;;;17.69;54.05;101629.34;4990625;28;20070;-74
2022/09/25 00:03:37;;;;;;;10.73;2.67;;;;;;;17.92;53.47;101629.09;4985822;28;20084;-72
2022/09/25 00:06:12;;;;;;;12.10;3.80;;;;;;;17.97;53.48;101629.16;4982166;28;20049;-72
2022/09/25 00:08:38;;;;;;;8.25;3.00;;;;;;;17.80;54.01;101635.75;4984778;28;20043;-72
2022/09/25 00:11:12;;;;;;;14.90;2.88;;;;;;;17.62;54.07;101644.19;4985638;28;20048;-72
2022/09/25 00:13:39;;;;;;;13.63;3.10;;;;;;;17.78;53.95;101644.16;4990226;28;20026;-73
2022/09/25 00:16:05;;;;;;;9.43;4.75;;;;;;;17.29;55.52;101640.47;4976668;28;20047;-72
2022/09/25 00:21:16;;;;;;;12.70;2.95;;;;;;;17.40;54.79;101652.28;4971577;28;20174;-73
2022/09/25 00:23:43;;;;;;;13.85;3.50;;;;;;;17.45;55.17;101650.47;4971845;28;20034;-72
2022/09/25 00:26:10;;;;;;;10.85;2.97;;;;;;;17.57;54.46;101657.75;4972443;28;20054;-73
2022/09/25 00:28:37;;;;;;;6.43;2.83;;;;;;;17.52;54.36;101656.59;4972506;28;20035;-71
2022/09/25 00:31:04;;;;;;;11.00;3.42;;;;;;;17.61;53.92;101654.25;4971651;28;20464;-71
2022/09/25 00:33:33;;;;;;;11.77;3.08;;;;;;;17.60;54.00;101654.50;4971760;28;20049;-72
2022/09/25 00:36:07;;;;;;;9.40;4.10;;;;;;;17.38;54.63;101658.00;4971757;28;20099;-72
2022/09/25 00:38:34;;;;;;;12.50;2.88;;;;;;;17.48;53.97;101657.31;4971906;28;20043;-72
2022/09/25 00:41:03;;;;;;;15.55;3.47;;;;;;;17.39;54.29;101664.25;4972315;28;20055;-72
2022/09/25 00:43:55;;;;;;;7.45;3.40;;;;;;;17.35;54.43;101661.22;4991115;28;20491;-72
2022/09/25 00:46:24;;;;;;;10.38;3.15;;;;;;;17.46;54.03;101652.13;4991639;28;20097;-73
2022/09/25 00:49:02;;;;;;;9.50;3.33;;;;;;;17.29;54.04;101655.94;4990860;28;20584;-73
2022/09/25 00:51:40;;;;;;;7.25;2.85;;;;;;;17.26;53.87;101659.16;4978935;28;20511;-71
2022/09/25 00:54:13;;;;;;;11.02;3.92;;;;;;;17.22;54.09;101650.69;4970415;28;20039;-72
2022/09/25 00:56:43;;;;;;;8.07;3.10;;;;;;;17.05;54.12;101660.75;4986332;28;20037;-73
2022/09/25 00:59:16;;;;;;;12.63;3.65;;;;;;;17.15;54.21;101660.91;4971679;28;20027;-73
2022/09/25 01:01:41;;;;;;;14.45;4.38;;;;;;;17.04;53.99;101658.28;4973688;28;20031;-72
2022/09/25 01:04:07;;;;;;;14.00;3.22;;;;;;;16.97;54.27;101658.44;5006308;28;20181;-74
2022/09/25 01:06:34;;;;;;;9.98;4.07;;;;;;;16.95;54.19;101657.03;4975055;28;20495;-73
2022/09/25 01:09:02;;;;;;;7.32;3.72;;;;;;;16.97;54.77;101665.75;4975026;28;20072;-72
2022/09/25 01:11:29;;;;;;;10.52;3.28;;;;;;;16.99;54.28;101650.03;4974743;28;20114;-72
2022/09/25 01:13:57;;;;;;;14.98;3.28;;;;;;;16.98;54.29;101649.22;4975239;28;20122;-71
2022/09/25 01:16:48;;;;;;;9.73;3.90;;;;;;;16.96;54.07;101645.13;4974860;28;20318;-73
2022/09/25 01:19:38;;;;;;;9.82;3.13;;;;;;;16.77;54.28;101657.28;4975158;28;20499;-73
2022/09/25 01:22:14;;;;;;;9.35;3.63;;;;;;;17.01;54.64;101654.16;4974581;28;20055;-73
2022/09/25 01:25:01;;;;;;;18.00;3.95;;;;;;;16.85;54.47;101656.88;4974378;28;20089;-73
2022/09/25 01:27:35;;;;;;;8.93;3.50;;;;;;;16.77;54.74;101655.41;4974480;28;20034;-72
2022/09/25 01:30:12;;;;;;;7.68;3.28;;;;;;;16.67;54.75;101650.63;4974567;28;20442;-73
2022/09/25 01:32:45;;;;;;;9.68;3.38;;;;;;;16.62;54.68;101649.72;4974219;28;20058;-73
2022/09/25 01:35:38;;;;;;;5.05;3.45;;;;;;;16.72;55.03;101652.59;4974239;28;20109;-72
2022/09/25 01:38:54;;;;;;;8.30;4.45;;;;;;;16.62;54.83;101644.28;4974410;28;20031;-72
2022/09/25 01:41:26;;;;;;;7.03;3.60;;;;;;;16.77;54.53;101649.13;4933042;29;20102;-74
2022/09/25 01:44:05;;;;;;;9.80;3.55;;;;;;;16.76;54.58;101652.94;4933451;29;20075;-71
2022/09/25 01:46:35;;;;;;;7.10;3.33;;;;;;;16.75;54.57;101643.97;4935534;28;20052;-73
2022/09/25 01:49:08;;;;;;;10.23;3.85;;;;;;;16.71;54.33;101642.81;4952177;28;20054;-74
2022/09/25 01:51:41;;;;;;;8.73;3.10;;;;;;;16.66;54.82;101649.00;4952149;28;20046;-71
2022/09/25 01:54:11;;;;;;;5.03;3.47;;;;;;;16.60;54.63;101639.13;4952778;28;20043;-71
2022/09/25 01:56:49;;;;;;;10.93;3.40;;;;;;;16.56;54.72;101642.56;4953105;28;20063;-73
2022/09/25 01:59:15;;;;;;;10.48;4.00;;;;;;;16.62;54.58;101639.69;4953095;28;20062;-72
2022/09/25 02:01:42;;;;;;;10.02;3.40;;;;;;;16.59;54.43;101642.03;4953352;29;20031;-72
2022/09/25 02:04:14;;;;;;;11.32;4.07;;;;;;;16.60;54.33;101644.53;4953040;28;20062;-70
2022/09/25 02:06:45;;;;;;;5.97;3.33;;;;;;;16.68;54.25;101637.88;4952875;28;20040;-71
2022/09/25 02:09:40;;;;;;;9.60;3.30;;;;;;;16.55;54.71;101640.88;4952845;28;20062;-70
2022/09/25 02:12:14;;;;;;;6.78;3.53;;;;;;;16.41;54.70;101636.84;4952698;28;20055;-72
2022/09/25 02:14:47;;;;;;;8.77;3.65;;;;;;;16.27;55.37;101633.59;4942871;29;20043;-73
2022/09/25 02:20:30;;;;;;;7.70;3.72;;;;;;;16.30;55.11;101640.41;4962454;28;20463;-71
2022/09/25 02:22:51;;;;;;;11.15;4.30;;;;;;;16.33;54.69;101634.50;4975281;28;20040;-73
2022/09/25 02:25:26;;;;;;;7.68;3.80;;;;;;;16.39;54.88;101631.63;4974410;28;20097;-73
2022/09/25 02:27:52;;;;;;;11.10;4.75;;;;;;;16.35;54.91;101627.75;5005955;28;20030;-74
2022/09/25 02:30:18;;;;;;;10.77;4.50;;;;;;;16.24;55.04;101628.66;4974377;28;20521;-72
2022/09/25 02:32:43;;;;;;;9.65;4.15;;;;;;;16.26;54.63;101629.22;4974268;28;20114;-71
2022/09/25 02:35:09;;;;;;;5.35;3.60;;;;;;;16.27;54.71;101633.59;4974236;28;20600;-73
2022/09/25 02:37:35;;;;;;;10.68;4.57;;;;;;;16.18;55.04;101632.34;4974864;28;20027;-72
2022/09/25 02:40:03;;;;;;;7.30;3.83;;;;;;;16.19;55.07;101641.28;4974061;28;20134;-71
2022/09/25 02:42:28;;;;;;;8.10;4.32;;;;;;;16.19;55.86;101639.41;4985526;28;20491;-73
2022/09/25 02:45:33;;;;;;;6.50;3.90;;;;;;;16.18;55.51;101636.94;4974081;28;20050;-72
2022/09/25 02:48:17;;;;;;;7.68;3.72;;;;;;;16.15;55.22;101630.13;4973919;28;20571;-73
2022/09/25 02:51:07;;;;;;;7.80;3.28;;;;;;;16.11;54.96;101634.38;4973933;28;20027;-72
2022/09/25 02:53:45;;;;;;;5.00;3.55;;;;;;;16.11;54.71;101630.84;4974177;28;20035;-71
2022/09/25 02:56:19;;;;;;;9.23;3.40;;;;;;;16.05;54.95;101629.91;4973930;28;20073;-73
2022/09/25 02:58:49;;;;;;;5.85;2.95;;;;;;;16.01;54.99;101636.88;4973603;28;20415;-73
2022/09/25 03:01:17;;;;;;;7.07;3.50;;;;;;;15.95;55.25;101637.84;4987646;28;20039;-71
2022/09/25 03:03:50;;;;;;;8.15;3.42;;;;;;;15.95;54.73;101635.13;4972927;28;20031;-73
2022/09/25 03:06:16;;;;;;;5.75;3.75;;;;;;;15.93;55.04;101633.72;4972842;28;20129;-72
2022/09/25 03:08:48;;;;;;;4.97;2.72;;;;;;;15.78;55.08;101632.34;4972855;28;20104;-72
2022/09/25 03:11:18;;;;;;;5.57;3.58;;;;;;;15.94;54.99;101633.47;4972972;28;20430;-72
2022/09/25 03:13:44;;;;;;;5.32;3.28;;;;;;;15.95;55.37;101637.84;4973099;28;20365;-74
2022/09/25 03:16:19;;;;;;;6.20;3.38;;;;;;;15.99;54.79;101638.19;4972870;28;20049;-71
2022/09/25 03:18:45;;;;;;;4.63;2.97;;;;;;;15.97;55.11;101638.44;4953340;28;20129;-71
2022/09/25 03:21:11;;;;;;;4.13;2.50;;;;;;;15.79;55.31;101634.03;4952929;28;20381;-72
2022/09/25 03:23:36;;;;;;;8.43;4.43;;;;;;;15.84;55.03;101636.00;4953282;28;20054;-71
2022/09/25 03:26:03;;;;;;;9.52;3.45;;;;;;;15.68;55.70;101632.13;4953255;28;20125;-72
2022/09/25 03:28:29;;;;;;;4.40;3.17;;;;;;;15.70;55.46;101626.50;4953678;28;20031;-72
2022/09/25 03:30:59;;;;;;;10.07;3.97;;;;;;;15.81;55.19;101634.59;4953006;28;20534;-73
2022/09/25 03:33:26;;;;;;;9.60;3.20;;;;;;;15.85;54.97;101643.06;4953170;28;20579;-73
2022/09/25 03:36:17;;;;;;;7.18;3.03;;;;;;;15.81;55.08;101639.19;4953113;28;20035;-72
2022/09/25 03:38:45;;;;;;;5.85;3.17;;;;;;;15.80;55.00;101635.66;4953344;28;20031;-72
2022/09/25 03:41:12;;;;;;;6.35;3.28;;;;;;;15.84;55.38;101636.00;4952818;28;20090;-73
2022/09/25 03:43:40;;;;;;;7.97;3.05;;;;;;;15.91;55.19;101635.84;4953448;28;20388;-71
2022/09/25 03:46:08;;;;;;;5.10;2.97;;;;;;;15.88;54.85;101639.06;4953224;28;20129;-70
2022/09/25 03:48:35;;;;;;;8.23;3.33;;;;;;;15.81;55.05;101631.06;4952740;28;20114;-73
2022/09/25 03:51:01;;;;;;;7.78;3.42;;;;;;;15.86;54.88;101638.47;4952846;28;20054;-71
2022/09/25 03:53:30;;;;;;;7.10;3.08;;;;;;;15.86;55.17;101631.19;4953034;28;20102;-72
2022/09/25 03:55:55;;;;;;;4.03;2.85;;;;;;;15.81;54.91;101623.75;4953077;28;20516;-73
2022/09/25 03:58:20;;;;;;;12.10;3.58;;;;;;;15.86;55.20;101627.63;4952907;28;20046;-70
2022/09/25 04:00:46;;;;;;;5.78;3.30;;;;;;;15.79;54.81;101625.88;4952499;28;20063;-70
2022/09/25 04:03:13;;;;;;;6.47;3.22;;;;;;;15.83;55.17;101621.63;4956647;28;20550;-70
2022/09/25 04:05:39;;;;;;;6.88;2.72;;;;;;;15.89;55.75;101619.84;4966524;28;20059;-72
2022/09/25 04:08:04;;;;;;;8.55;3.22;;;;;;;16.10;54.97;101615.63;4963016;28;20042;-70
2022/09/25 04:10:31;;;;;;;6.97;3.45;;;;;;;16.00;55.15;101623.59;4962177;28;20294;-72
2022/09/25 04:12:57;;;;;;;5.53;3.13;;;;;;;15.99;55.13;101611.91;4968262;28;20041;-73
2022/09/25 04:15:23;;;;;;;5.10;2.65;;;;;;;15.93;54.90;101617.47;4982894;28;20487;-71
2022/09/25 04:17:49;;;;;;;6.07;2.97;;;;;;;15.83;54.84;101615.38;4971328;28;20047;-73
2022/09/25 04:20:14;;;;;;;6.05;3.42;;;;;;;15.80;54.78;101611.25;4971688;28;20074;-73
2022/09/25 04:22:40;;;;;;;7.13;2.88;;;;;;;15.73;54.92;101609.75;4972605;28;20061;-72
2022/09/25 04:25:06;;;;;;;5.03;2.83;;;;;;;15.71;55.12;101611.88;4971811;28;20043;-71
2022/09/25 04:27:31;;;;;;;7.90;3.60;;;;;;;15.81;55.34;101614.78;4971995;28;20042;-71
2022/09/25 04:29:56;;;;;;;4.95;3.15;;;;;;;15.77;55.00;101616.34;4971758;28;20040;-71
2022/09/25 04:35:06;;;;;;;5.18;3.50;;;;;;;15.65;55.40;101615.53;4972894;28;20070;-71
2022/09/25 04:37:32;;;;;;;4.53;2.45;;;;;;;15.66;54.89;101614.50;4994709;28;20121;-69
2022/09/25 04:39:57;;;;;;;7.15;2.97;;;;;;;15.61;55.39;101609.78;4984574;28;20066;-70
2022/09/25 04:42:24;;;;;;;13.68;4.03;;;;;;;15.74;54.94;101620.34;4975627;28;20070;-71
2022/09/25 04:44:53;;;;;;;9.30;3.08;;;;;;;15.74;55.03;101608.69;4975460;28;20066;-70
2022/09/25 04:47:23;;;;;;;4.30;2.95;;;;;;;15.68;55.06;101615.09;4975174;28;20038;-72
2022/09/25 04:49:49;;;;;;;11.90;3.88;;;;;;;15.56;55.32;101612.41;4975449;28;20093;-71
2022/09/25 04:52:16;;;;;;;5.97;3.08;;;;;;;15.57;55.22;101616.75;4975226;28;20062;-70
2022/09/25 04:54:42;;;;;;;8.40;2.65;;;;;;;15.67;54.93;101613.41;4975292;28;20034;-71
2022/09/25 04:57:09;;;;;;;10.50;2.70;;;;;;;15.61;54.70;101617.91;4975128;28;20039;-72
2022/09/25 04:59:35;;;;;;;4.60;2.80;;;;;;;15.50;54.81;101623.38;4979543;28;20529;-71
2022/09/25 05:02:00;;;;;;;4.57;2.67;;;;;;;15.54;55.12;101630.78;4995096;28;20185;-71
2022/09/25 05:04:25;;;;;;;5.53;2.97;;;;;;;15.67;54.93;101624.25;4994221;28;20026;-70
2022/09/25 05:06:51;;;;;;;7.32;2.97;;;;;;;15.59;55.60;101621.91;4994513;28;20117;-71
2022/09/25 05:09:16;;;;;;;5.07;2.70;;;;;;;15.74;55.78;101630.38;4994317;28;20125;-72
2022/09/25 05:11:42;;;;;;;3.67;2.60;;;;;;;15.61;55.86;101619.78;4994448;28;20117;-72
2022/09/25 05:14:07;;;;;;;7.35;2.55;;;;;;;15.70;55.67;101615.66;4994116;28;20149;-70
2022/09/25 05:16:33;;;;;;;8.45;2.20;;;;;;;15.76;55.42;101614.72;4991398;28;20031;-71
2022/09/25 05:18:58;;;;;;;3.55;2.40;;;;;;;15.75;55.19;101610.34;4974519;28;20055;-72
2022/09/25 05:21:24;;;;;;;4.38;2.35;;;;;;;15.85;55.25;101605.13;4974851;28;20039;-72
2022/09/25 05:23:50;;;;;;;4.53;2.63;;;;;;;15.81;55.23;101603.94;4974537;28;20535;-72
2022/09/25 05:26:15;;;;;;;14.18;5.53;;;;;;;15.90;55.29;101602.50;4989537;28;20039;-71
2022/09/25 05:28:41;;;;;;;4.88;3.10;;;;;;;15.94;56.13;101597.44;4975111;28;20023;-72
2022/09/25 05:31:06;;;;;;;7.68;3.40;;;;;;;15.78;56.49;101599.84;4974794;28;20031;-70
2022/09/25 05:33:33;;;;;;;5.55;3.00;;;;;;;16.01;55.74;101601.66;4974269;28;20049;-71
2022/09/25 05:36:03;;;;;;;6.30;2.85;;;;;;;15.93;55.83;101602.03;4974423;28;20053;-71
2022/09/25 05:38:31;;;;;;;5.43;2.95;;;;;;;16.13;55.95;101601.59;4974593;28;20035;-72
2022/09/25 05:41:02;;;;;;;5.38;2.67;;;;;;;16.30;55.79;101599.72;4975053;28;20538;-71
2022/09/25 05:43:27;;;;;;;9.85;2.88;;;;;;;16.35;55.57;101603.34;4974710;28;20050;-71
2022/09/25 05:45:56;;;;;;;3.40;2.28;;;;;;;16.36;55.47;101598.75;4974433;28;20458;-72
2022/09/25 05:48:22;;;;;;;13.60;3.50;;;;;;;16.41;55.44;101593.44;4973834;28;20042;-72
2022/09/25 05:50:55;;;;;;;11.85;3.78;;;;;;;16.30;55.26;101602.44;4974279;28;20041;-72
2022/09/25 05:53:21;;;;;;;6.38;3.22;;;;;;;16.43;55.80;101600.22;4974118;28;20117;-72
2022/09/25 05:55:56;;;;;;;7.00;3.20;;;;;;;16.60;55.52;101609.25;4974778;28;20031;-72
2022/09/25 05:58:22;;;;;;;10.65;3.08;;;;;;;16.73;55.28;101613.53;4974167;28;20099;-72
2022/09/25 06:00:49;;;;;;;16.67;3.63;;;;;;;16.53;56.19;101611.28;4988313;28;20042;-70
2022/09/25 06:03:15;;;;;;;4.40;2.60;;;;;;;16.72;55.44;101608.34;4993225;28;20138;-72
2022/09/25 06:05:40;;;;;;;7.03;3.17;;;;;;;16.86;55.38;101613.22;4993155;28;20089;-72
2022/09/25 06:08:06;;;;;;;4.22;3.05;;;;;;;16.91;55.54;101615.16;4993044;28;20038;-72
2022/09/25 06:10:32;;;;;;;7.47;3.55;;;;;;;16.94;55.27;101620.94;4993772;28;20103;-72
2022/09/25 06:13:01;;;;;;;3.92;2.78;;;;;;;17.02;55.25;101615.06;4971313;28;20053;-71
2022/09/25 06:15:28;;;;;;;6.40;3.30;;;;;;;16.97;55.44;101606.84;4970193;28;20035;-73
2022/09/25 06:17:56;;;;;;;8.00;3.22;;;;;;;17.14;55.42;101618.50;4969288;28;20502;-72
2022/09/25 06:20:22;;;;;;;6.90;2.78;;;;;;;17.05;55.45;101613.75;4970242;28;20054;-71
2022/09/25 06:22:54;;;;;;;9.45;2.75;;;;;;;17.21;55.31;101611.03;4970754;28;20518;-70
2022/09/25 06:25:22;;;;;;;11.27;3.22;;;;;;;17.22;55.02;101620.81;4969940;28;20170;-71
2022/09/25 06:27:51;;;;;;;12.23;3.08;;;;;;;17.14;54.97;101621.22;4969601;28;20097;-71
2022/09/25 06:30:17;;;;;;;5.13;2.85;;;;;;;17.23;55.17;101613.47;4970533;28;20043;-71
2022/09/25 06:32:43;;;;;;;8.75;2.55;;;;;;;17.22;54.91;101623.53;4969758;28;20054;-71
2022/09/25 06:35:08;;;;;;;13.73;3.13;;;;;;;17.16;55.43;101629.16;4969839;28;20046;-71
2022/09/25 06:37:34;;;;;;;13.80;3.28;;;;;;;16.82;56.76;101631.06;4970285;28;20037;-74
2022/09/25 06:39:59;;;;;;;8.93;3.30;;;;;;;16.96;56.60;101634.25;4973606;28;20122;-71
2022/09/25 06:42:25;;;;;;;9.20;3.05;;;;;;;16.95;57.17;101633.44;4977986;28;20085;-71
2022/09/25 06:44:50;;;;;;;11.10;4.22;;;;;;;17.27;56.61;101639.06;4988814;28;20384;-71
2022/09/25 06:47:15;;;;;;;7.10;3.00;;;;;;;17.54;56.34;101623.72;4989114;28;20045;-71
2022/09/25 06:49:41;;;;;;;10.48;3.25;;;;;;;17.58;56.88;101634.91;4976501;28;20240;-72
2022/09/25 06:52:06;;;;;;;6.65;3.35;;;;;;;17.48;57.46;101622.84;4984103;28;20046;-71
2022/09/25 06:54:32;;;;;;;10.68;3.95;;;;;;;17.71;56.34;101626.41;4988673;28;20034;-71
2022/09/25 06:56:57;;;;;;;6.75;2.47;;;;;;;18.22;55.69;101628.63;4984279;28;20046;-71
2022/09/25 06:59:24;;;;;;;5.20;2.85;;;;;;;18.48;55.07;101629.69;4969176;28;20035;-73
2022/09/25 07:01:50;;;;;;;7.00;2.80;;;;;;;18.66;54.54;101621.97;4978801;28;20034;-72
2022/09/25 07:04:15;;;;;;;7.68;2.85;;;;;;;18.60;54.87;101620.28;4978972;28;20049;-72
2022/09/25 07:06:41;;;;;;;6.18;3.28;;;;;;;18.86;53.77;101613.97;4969714;28;20113;-72
2022/09/25 07:09:06;;;;;;;3.38;2.25;;;;;;;18.59;54.92;101620.56;4969131;28;20046;-72
2022/09/25 07:11:32;;;;;;;6.35;1.60;;;;;;;18.79;54.61;101626.97;4968591;28;20034;-73
2022/09/25 07:13:57;;;;;;;5.93;1.88;;;;;;;18.77;54.55;101625.63;4970051;28;20039;-71
2022/09/25 07:16:27;;;;;;;7.00;2.00;;;;;;;18.99;54.75;101624.41;4968499;28;20101;-72
2022/09/25 07:18:53;;;;;;;4.30;2.10;;;;;;;18.10;57.19;101625.22;4967658;28;20126;-74
2022/09/25 07:21:22;;;;;;;6.65;1.83;;;;;;;18.84;55.18;101624.31;4984316;28;20039;-73
2022/09/25 07:23:48;;;;;;;4.53;1.30;;;;;;;19.05;54.59;101622.53;4968871;28;20035;-71
2022/09/25 07:26:28;;;;;;;6.68;1.65;;;;;;;18.63;55.84;101629.84;4971749;28;20094;-73
2022/09/25 07:28:58;;;;;;;7.47;2.30;;;;;;;18.72;55.21;101629.13;4972718;28;20042;-72
2022/09/25 07:31:25;;;;;;;5.82;1.73;;;;;;;19.13;54.23;101627.50;4972766;28;20069;-71
2022/09/25 07:33:51;;;;;;;2.60;1.15;;;;;;;19.20;53.68;101617.22;4972190;28;20035;-73
2022/09/25 07:36:17;;;;;;;2.75;0.95;;;;;;;19.27;53.99;101617.78;4972444;28;20042;-74
2022/09/25 07:38:44;;;;;;;3.28;1.10;;;;;;;19.59;53.03;101615.00;4972163;28;20089;-71
2022/09/25 07:41:12;;;;;;;3.38;1.00;;;;;;;20.04;51.32;101609.69;4972410;28;20030;-74
2022/09/25 07:43:38;;;;;;;2.85;0.77;;;;;;;20.08;49.90;101608.91;4972677;28;20035;-75
2022/09/25 07:46:04;;;;;;;2.75;0.70;;;;;;;20.54;49.48;101607.06;4972986;28;20047;-72
2022/09/25 07:48:30;;;;;;;3.95;0.60;;;;;;;19.92;50.06;101609.13;4972916;28;20050;-72
2022/09/25 07:51:00;;;;;;;2.53;0.60;;;;;;;19.87;50.26;101615.38;4972802;28;20039;-74
2022/09/25 07:53:25;;;;;;;2.35;0.75;;;;;;;20.17;49.91;101607.28;4973317;28;20038;-75
2022/09/25 07:55:50;;;;;;;2.70;0.77;;;;;;;20.08;49.76;101608.91;4973543;28;20471;-73
2022/09/25 07:58:18;;;;;;;1.85;0.50;;;;;;;20.43;49.29;101615.53;4972738;28;20070;-73
2022/09/25 08:00:44;;;;;;;3.25;0.80;;;;;;;20.43;50.03;101620.97;4971580;28;20515;-73
2022/09/25 08:03:10;;;;;;;0.95;0.50;;;;;;;20.57;49.75;101612.00;4973007;28;20043;-73
2022/09/25 08:05:36;;;;;;;3.17;0.75;;;;;;;20.48;49.92;101621.81;4988289;28;20078;-73
2022/09/25 08:08:01;;;;;;;5.88;0.90;;;;;;;20.67;49.37;101609.28;4972580;28;20415;-73
2022/09/25 08:10:27;;;;;;;2.38;0.98;;;;;;;20.07;51.14;101614.59;4973174;28;20491;-73
2022/09/25 08:12:53;;;;;;;1.73;0.90;;;;;;;20.54;49.97;101612.53;4976600;28;20042;-75
2022/09/25 08:15:18;;;;;;;3.13;0.60;;;;;;;20.55;49.89;101614.19;4976723;28;20043;-72
2022/09/25 08:17:43;;;;;;;1.25;0.65;;;;;;;19.84;51.18;101610.47;4976150;28;20054;-73
2022/09/25 08:20:09;;;;;;;1.92;0.57;;;;;;;19.91;50.76;101616.47;4976641;28;20058;-73
2022/09/25 08:22:35;;;;;;;1.25;0.50;;;;;;;19.75;50.78;101622.97;4975786;28;20562;-73
2022/09/25 08:25:02;;;;;;;1.20;0.60;;;;;;;19.99;50.14;101621.41;4975249;28;20039;-72
2022/09/25 08:27:29;;;;;;;2.28;0.40;;;;;;;19.99;49.55;101623.31;4975214;28;20495;-74
2022/09/25 08:29:54;;;;;;;1.83;0.60;;;;;;;20.72;48.15;101624.81;4975280;28;20033;-74
2022/09/25 08:32:20;;;;;;;2.05;0.60;;;;;;;20.87;47.25;101627.56;4976321;28;20019;-72
2022/09/25 08:34:46;;;;;;;1.98;0.65;;;;;;;20.55;46.70;101618.81;4990234;28;20034;-75
2022/09/25 08:37:11;;;;;;;2.65;0.60;;;;;;;19.90;47.88;101623.03;4990023;28;20037;-73
2022/09/25 08:39:37;;;;;;;3.63;0.70;;;;;;;19.84;48.60;101623.28;4993432;28;20498;-73
2022/09/25 08:42:03;;;;;;;3.72;1.23;;;;;;;19.74;48.38;101634.13;4993747;28;20053;-74
2022/09/25 08:44:46;;;;;;;5.03;1.05;;;;;;;20.57;45.84;101627.56;4994044;28;20042;-73
2022/09/25 08:50:15;;;;;;;4.05;1.20;;;;;;;20.28;46.04;101629.16;4993720;28;20037;-72
2022/09/25 08:52:45;;;;;;;3.15;0.75;;;;;;;19.86;46.64;101621.91;4990928;28;20506;-74
2022/09/25 08:56:13;;;;;;;8.77;0.70;;;;;;;20.22;47.69;101624.78;4992231;28;20069;-71
2022/09/25 08:58:23;;;;;;;2.47;0.90;;;;;;;20.44;46.65;101630.84;4990888;28;20035;-74
2022/09/25 09:00:51;;;;;;;4.40;0.60;;;;;;;21.44;43.88;101627.22;4990345;28;20085;-74
2022/09/25 09:03:18;;;;;;;1.15;0.65;;;;;;;21.08;46.77;101631.94;4992865;28;20074;-75
2022/09/25 09:05:45;;;;;;;3.17;0.60;;;;;;;21.26;45.57;101631.38;4987690;28;20026;-74
2022/09/25 09:08:24;;;;;;;1.40;0.47;;;;;;;20.54;46.58;101625.38;4992844;28;20479;-75
2022/09/25 09:11:04;;;;;;;2.83;0.63;;;;;;;21.02;45.54;101626.75;4993222;28;20045;-73
2022/09/25 09:14:02;;;;;;;7.47;1.02;;;;;;;21.21;44.84;101628.63;4993321;28;20034;-73
2022/09/25 09:16:45;;;;;;;3.05;0.95;;;;;;;21.65;42.59;101618.66;4992251;28;20494;-73
2022/09/25 09:19:11;;;;;;;4.97;0.65;;;;;;;21.81;43.42;101623.00;4991207;28;20048;-74
2022/09/25 09:21:46;;;;;;;3.67;0.65;;;;;;;21.05;44.14;101620.75;4989954;28;20050;-73
2022/09/25 09:24:14;;;;;;;5.90;1.23;;;;;;;22.08;41.70;101614.38;4986764;28;20038;-75
2022/09/25 09:27:25;;;;;;;6.53;0.85;;;;;;;20.93;43.72;101616.34;4989910;28;20030;-74
2022/09/25 09:29:57;;;;;;;5.72;0.90;;;;;;;21.02;43.06;101607.63;4989406;28;20165;-78
2022/09/25 09:32:45;;;;;;;4.70;1.27;;;;;;;21.86;40.84;101610.41;4986313;28;20034;-78
2022/09/25 09:35:45;;;;;;;5.25;1.25;;;;;;;22.00;41.24;101611.41;5011285;28;20395;-78
2022/09/25 09:38:36;;;;;;;6.25;0.90;;;;;;;21.55;41.76;101604.19;4970862;28;20066;-74
2022/09/25 09:41:08;;;;;;;5.85;0.80;;;;;;;21.40;43.08;101613.28;4972972;28;20538;-73
2022/09/25 09:43:52;;;;;;;5.53;0.95;;;;;;;21.74;41.61;101616.97;4974466;28;20042;-75
2022/09/25 09:46:42;;;;;;;5.53;0.88;;;;;;;21.99;40.59;101609.78;4972409;28;20336;-76
2022/09/25 09:49:35;;;;;;;3.05;0.50;;;;;;;21.17;42.78;101615.81;4973732;28;20278;-74
2022/09/25 09:52:09;;;;;;;8.05;0.85;;;;;;;21.48;41.60;101617.38;4985962;28;20039;-75
2022/09/25 09:54:59;;;;;;;3.08;0.63;;;;;;;22.77;39.35;101600.47;4964183;28;20042;-77
2022/09/25 09:57:30;;;;;;;4.90;0.85;;;;;;;22.11;40.66;101604.78;4970778;28;20050;-77
2022/09/25 10:00:04;;;;;;;5.55;0.77;;;;;;;22.58;39.15;101597.59;4971932;28;20045;-74
2022/09/25 10:02:39;;;;;;;6.15;1.05;;;;;;;22.08;40.31;101605.34;4970229;28;20042;-77
2022/09/25 10:05:17;;;;;;;3.03;0.65;;;;;;;21.14;41.06;101599.94;4971981;28;20091;-75
2022/09/25 10:07:45;;;;;;;3.97;0.90;;;;;;;22.36;39.63;101596.41;4976584;28;20041;-74
2022/09/25 10:10:15;;;;;;;7.38;0.80;;;;;;;22.39;40.16;101596.63;4973285;28;20042;-73
2022/09/25 10:12:46;;;;;;;3.00;0.50;;;;;;;21.99;40.24;101598.84;4972629;28;20046;-74
2022/09/25 10:15:23;;;;;;;8.10;0.82;;;;;;;21.96;40.59;101588.44;4996087;28;20057;-72
2022/09/25 10:17:49;;;;;;;6.68;1.38;;;;;;;22.82;37.90;101588.66;5015190;28;20460;-71
2022/09/25 10:20:19;;;;;;;2.05;0.40;;;;;;;23.14;37.54;101594.34;5015972;28;20121;-73
2022/09/25 10:22:46;;;;;;;3.33;0.93;;;;;;;23.35;37.84;101585.63;5017281;28;20022;-72
2022/09/25 10:25:11;;;;;;;2.20;0.50;;;;;;;23.13;38.32;101596.31;5016956;28;20042;-72
2022/09/25 10:27:46;;;;;;;2.65;0.65;;;;;;;22.16;38.52;101594.63;5009330;28;20037;-73
2022/09/25 10:30:21;;;;;;;4.35;0.77;;;;;;;22.46;37.80;101593.59;5007755;28;20568;-74
2022/09/25 10:33:02;;;;;;;3.60;1.92;;;;;;;22.09;37.55;101593.31;5007743;28;20037;-72
2022/09/25 10:35:36;;;;;;;2.17;0.30;;;;;;;22.26;38.76;101583.59;5006843;28;20127;-81
2022/09/25 10:38:03;;;;;;;5.50;0.70;;;;;;;23.18;36.80;101571.56;5008017;28;20386;-72
2022/09/25 10:40:33;;;;;;;4.07;1.30;;;;;;;23.21;36.49;101573.69;5009044;28;20034;-78
2022/09/25 10:43:14;;;;;;;4.25;0.77;;;;;;;23.29;37.20;101573.06;5007046;28;20042;-76
2022/09/25 10:45:40;;;;;;;3.63;0.57;;;;;;;22.65;38.56;101573.47;5007510;28;20073;-79
2022/09/25 10:51:22;;;;;;;9.48;1.85;;;;;;;23.50;36.63;101568.19;4975360;28;20042;-81
2022/09/25 10:53:49;;;;;;;3.67;0.55;;;;;;;23.44;34.76;101570.19;4973635;28;20034;-82
2022/09/25 10:56:21;;;;;;;2.80;0.57;;;;;;;22.90;34.79;101572.38;4969709;28;20151;-76
2022/09/25 10:58:55;;;;;;;2.63;0.50;;;;;;;23.35;34.49;101558.22;4970784;28;20045;-78
2022/09/25 11:01:34;;;;;;;3.65;1.73;;;;;;;23.97;34.48;101562.59;4978895;28;20057;-77
2022/09/25 11:04:01;;;;;;;5.40;0.73;;;;;;;24.20;34.30;101574.63;4977254;28;20031;-77
2022/09/25 11:06:51;;;;;;;3.53;0.85;;;;;;;22.96;36.19;101571.22;4977180;28;20068;-76
2022/09/25 11:09:22;;;;;;;2.50;0.40;;;;;;;21.52;38.50;101577.41;4980355;28;20446;-78
2022/09/25 11:11:51;;;;;;;4.05;0.80;;;;;;;21.38;39.17;101571.72;4976544;28;20057;-65
2022/09/25 11:14:32;;;;;;;8.27;1.35;;;;;;;21.03;41.10;101571.00;4983399;28;20042;-78
2022/09/25 11:16:59;;;;;;;10.48;1.98;;;;;;;21.13;42.35;101565.53;4975584;28;20506;-76
2022/09/25 11:19:34;;;;;;;2.60;0.55;;;;;;;21.84;41.12;101575.91;4960391;28;20134;-80
2022/09/25 11:22:06;;;;;;;3.42;0.50;;;;;;;22.16;40.37;101572.72;4979505;28;20125;-76
2022/09/25 11:25:10;;;;;;;6.85;0.63;;;;;;;22.51;38.69;101569.69;4984136;28;20050;-76
2022/09/25 11:27:41;;;;;;;1.65;0.22;;;;;;;22.69;36.65;101570.94;4997355;28;20037;-73
2022/09/25 11:30:11;;;;;;;6.10;0.50;;;;;;;22.74;37.73;101570.09;5024046;28;20125;-79
2022/09/25 11:32:57;;;;;;;0.98;0.32;;;;;;;23.10;36.44;101566.69;5029283;28;20045;-77
2022/09/25 11:35:40;;;;;;;1.25;0.28;;;;;;;21.83;38.16;101568.00;5034272;28;20034;-79
2022/09/25 11:41:21;;;;;;;1.92;0.38;;;;;;;22.20;38.84;101560.09;5018356;28;20079;-74
2022/09/25 11:44:53;;;;;;;2.15;0.38;;;;;;;21.67;40.01;101558.19;5021268;28;20081;-80
2022/09/25 11:47:44;;;;;;;1.27;0.38;;;;;;;22.31;39.91;101553.44;4881286;29;20205;-77
2022/09/25 11:50:14;;;;;;;4.40;0.63;;;;;;;22.46;38.77;101557.97;4880205;29;20053;-78
2022/09/25 11:53:09;;;;;;;5.07;0.55;;;;;;;22.38;39.67;101556.66;4889494;29;20143;-78
2022/09/25 11:55:46;;;;;;;1.75;0.30;;;;;;;22.22;38.05;101552.41;4871779;29;20052;-73
2022/09/25 11:58:32;;;;;;;1.40;0.40;;;;;;;22.24;38.64;101557.59;4880455;29;20104;-81
2022/09/25 12:00:59;;;;;;;1.45;0.20;;;;;;;21.46;40.30;101553.94;4892324;29;20048;-80